world map with VDE marked

VDE - Airport

This information may not be accurate or current and is not valid for navigation or flight planning. No warranty of fitness for any purpose is made or implied.

flag of Canary Islandsflag of Spain

Donate via PayPal

Additional information is available on the NEW Great Circle Mapper

Location
City:  Valverde, El Hierro Island, Canary Islands, Spain
Name:El Hierro
ICAO / IATA:GCHI / VDE

Details
Type:Airport (Aerodrome, Airfield)
Latitude:27°48'53"N (27.814847)
Longitude:17°53'13"W (-17.887055)
Datum:WGS 1984
Elevation:103 ft (31 m)
Runways:1
Longest:4101 × 98 ft (1250 × 30 m)

Time
Timezone:UTC+0 (DST+3)
Local Time:

Weather
METAR:GCHI  181830Z AUTO 35007KT CAVOK 20/16 Q1022
TAF:GCHI  181400Z 1815/1915 36008KT CAVOK TX22/1914Z TN17/1906Z

Related Locations
Nearby:
Farthest:LDH: 12120 mi / 19505 km
Lord Howe Island, NSW, AU

Find:

   beyond  
but within

Other Information
Maps:
Sources:

  


 


Great Circle Mapper   Great Circle Mapper
Great Circle Mapper FAQ   Great Circle Mapper FAQ
  Karl's Home Page
KLSē   KLSē Home
   GC on Facebook
Airlines of the World   Airlines of the World
Donate via PayPal


Copyright © 2004-2018, Karl L. Swartz. All rights reserved.
All trademarks mentioned herein belong to their respective owners.

Please see credits for attribution and copyright information.

Karl Swartz <karl@kls2.com>
  Powered by FreeBSD
Valid HTML 4.01!
Labeled with ICRA
hCard Microformat
Geo Microformat